Time,TemperatureF,DewpointF,PressureIn,WindDirection,WindDirectionDegrees,WindSpeedMPH,WindSpeedGustMPH,Humidity,HourlyPrecipIn,Conditions,Clouds,dailyrainin,SoftwareType,DateUTC
2013-03-18 00:00:00,43.1,40.4,29.69,NW,309,0.0,0.0,90,0.00,,---,0.00,VWS V14.00,2013-03-18 05:00:00,
2013-03-18 00:05:00,42.9,40.2,29.69,NW,309,0.0,0.0,90,0.00,,---,0.00,VWS V14.00,2013-03-18 05:05:00,
2013-03-18 00:10:00,42.8,40.1,29.70,NW,309,0.0,0.0,90,0.00,,---,0.00,VWS V14.00,2013-03-18 05:10:00,
2013-03-18 00:15:00,42.7,40.0,29.70,NW,309,0.0,0.0,90,0.00,,---,0.00,VWS V14.00,2013-03-18 05:15:00,
2013-03-18 00:20:00,42.5,39.8,29.69,NW,309,0.0,0.0,90,0.00,,---,0.00,VWS V14.00,2013-03-18 05:20:00,
2013-03-18 00:25:00,42.2,39.5,29.68,NW,309,0.0,0.0,90,0.00,,---,0.00,VWS V14.00,2013-03-18 05:25:00,
2013-03-18 00:30:00,41.6,38.9,29.69,NW,309,0.0,0.0,90,0.00,,---,0.00,VWS V14.00,2013-03-18 05:30:00,
2013-03-18 00:35:00,41.3,38.6,29.69,NW,309,0.0,0.0,90,0.00,,---,0.00,VWS V14.00,2013-03-18 05:35:00,
2013-03-18 00:37:00,41.3,38.6,29.70,NW,309,0.0,0.0,90,0.00,,---,0.00,VWS V14.00,2013-03-18 05:37:00,
2013-03-18 00:40:00,41.3,38.6,29.70,NW,309,0.0,0.0,90,0.00,,---,0.00,VWS V14.00,2013-03-18 05:40:00,
2013-03-18 00:42:00,41.3,38.6,29.69,NW,309,0.0,0.0,90,0.00,,---,0.00,VWS V14.00,2013-03-18 05:42:00,
2013-03-18 00:45:00,41.3,38.9,29.69,NW,309,0.0,0.0,91,0.00,,---,0.00,VWS V14.00,2013-03-18 05:45:00,
2013-03-18 00:47:00,41.3,38.9,29.68,NW,309,0.0,0.0,91,0.00,,---,0.00,VWS V14.00,2013-03-18 05:47:00,
2013-03-18 00:50:00,41.3,38.9,29.68,NW,309,0.0,0.0,91,0.00,,---,0.00,VWS V14.00,2013-03-18 05:50:00,
2013-03-18 00:52:00,41.1,38.4,29.67,NW,309,0.0,0.0,90,0.00,,---,0.00,VWS V14.00,2013-03-18 05:52:00,
2013-03-18 00:55:00,41.0,38.3,29.67,NW,309,0.0,0.0,90,0.00,,---,0.00,VWS V14.00,2013-03-18 05:55:00,
2013-03-18 00:57:00,41.1,38.7,29.68,NW,309,0.0,0.0,91,0.00,,---,0.00,VWS V14.00,2013-03-18 05:57:00,
2013-03-18 01:00:00,41.1,38.7,29.68,NW,309,0.0,0.0,91,0.00,,---,0.00,VWS V14.00,2013-03-18 06:00:00,
2013-03-18 01:02:00,41.2,38.8,29.68,NW,309,0.0,0.0,91,0.00,,---,0.00,VWS V14.00,2013-03-18 06:02:00,
2013-03-18 01:05:00,41.3,38.9,29.68,NW,309,0.0,0.0,91,0.00,,---,0.00,VWS V14.00,2013-03-18 06:05:00,
2013-03-18 01:07:00,41.3,38.9,29.69,NW,309,0.0,0.0,91,0.00,,---,0.00,VWS V14.00,2013-03-18 06:07:00,
2013-03-18 01:10:00,41.4,39.0,29.69,NW,309,0.0,0.0,91,0.00,,---,0.00,VWS V14.00,2013-03-18 06:10:00,
2013-03-18 01:12:00,41.4,39.0,29.69,NW,309,0.0,0.0,91,0.00,,---,0.00,VWS V14.00,2013-03-18 06:12:00,
2013-03-18 01:15:00,41.4,39.0,29.69,NW,309,0.0,0.0,91,0.00,,---,0.00,VWS V14.00,2013-03-18 06:15:00,
2013-03-18 01:17:00,41.4,39.0,29.69,NW,309,0.0,0.0,91,0.00,,---,0.00,VWS V14.00,2013-03-18 06:17:00,
2013-03-18 01:20:00,41.4,39.0,29.69,NW,309,3.0,5.0,91,0.00,,---,0.00,VWS V14.00,2013-03-18 06:20:00,
2013-03-18 01:22:00,41.5,39.1,29.69,NW,309,3.0,5.0,91,0.00,,---,0.00,VWS V14.00,2013-03-18 06:22:00,
2013-03-18 01:25:00,41.5,39.1,29.69,NW,309,4.0,5.0,91,0.00,,---,0.00,VWS V14.00,2013-03-18 06:25:00,
2013-03-18 01:27:00,41.6,39.2,29.70,NW,309,6.0,6.0,91,0.00,,---,0.00,VWS V14.00,2013-03-18 06:27:00,
2013-03-18 01:30:00,41.6,39.2,29.70,NW,309,3.0,6.0,91,0.00,,---,0.00,VWS V14.00,2013-03-18 06:30:00,
2013-03-18 01:32:00,41.6,39.2,29.69,NW,309,2.0,5.0,91,0.00,,---,0.00,VWS V14.00,2013-03-18 06:32:00,
2013-03-18 01:35:00,41.6,39.2,29.69,NW,309,2.0,5.0,91,0.00,,---,0.00,VWS V14.00,2013-03-18 06:35:00,
2013-03-18 01:37:00,41.7,39.5,29.69,NW,309,2.0,4.0,92,0.00,,---,0.00,VWS V14.00,2013-03-18 06:37:00,
2013-03-18 01:40:00,41.8,39.7,29.69,NW,309,3.0,5.0,92,0.00,,---,0.00,VWS V14.00,2013-03-18 06:40:00,
2013-03-18 01:42:00,41.9,39.8,29.69,NW,309,3.0,5.0,92,0.00,,---,0.00,VWS V14.00,2013-03-18 06:42:00,
2013-03-18 01:45:00,42.0,39.8,29.69,NW,309,4.0,5.0,92,0.00,,---,0.00,VWS V14.00,2013-03-18 06:45:00,
2013-03-18 01:47:00,42.0,39.8,29.68,NW,309,4.0,5.0,92,0.00,,---,0.00,VWS V14.00,2013-03-18 06:47:00,
2013-03-18 01:50:00,42.1,40.0,29.68,NW,309,4.0,6.0,92,0.00,,---,0.00,VWS V14.00,2013-03-18 06:50:00,
2013-03-18 01:52:00,42.2,40.0,29.69,NW,309,4.0,7.0,92,0.00,,---,0.00,VWS V14.00,2013-03-18 06:52:00,
2013-03-18 01:55:00,42.2,40.0,29.69,NW,309,3.0,7.0,92,0.00,,---,0.00,VWS V14.00,2013-03-18 06:55:00,
2013-03-18 01:57:00,42.3,40.2,29.68,NW,321,2.0,9.0,92,0.00,,---,0.00,VWS V14.00,2013-03-18 06:57:00,
2013-03-18 02:00:00,42.3,40.2,29.69,NW,323,5.0,9.0,92,0.00,,---,0.00,VWS V14.00,2013-03-18 07:00:00,
2013-03-18 02:02:00,42.2,40.0,29.68,NW,326,5.0,6.0,92,0.00,,---,0.00,VWS V14.00,2013-03-18 07:02:00,
2013-03-18 02:05:00,42.2,40.0,29.68,NNW,345,5.0,7.0,92,0.00,,---,0.00,VWS V14.00,2013-03-18 07:05:00,
2013-03-18 02:07:00,42.1,40.0,29.69,North,9,3.0,9.0,92,0.00,,---,0.00,VWS V14.00,2013-03-18 07:07:00,
2013-03-18 02:10:00,42.0,39.8,29.69,North,9,3.0,9.0,92,0.00,,---,0.00,VWS V14.00,2013-03-18 07:10:00,
2013-03-18 02:12:00,42.0,39.8,29.69,North,9,4.0,7.0,92,0.00,,---,0.00,VWS V14.00,2013-03-18 07:12:00,
2013-03-18 02:15:00,42.0,39.8,29.69,North,9,6.0,7.0,92,0.00,,---,0.00,VWS V14.00,2013-03-18 07:15:00,
2013-03-18 02:17:00,41.9,39.8,29.69,North,9,3.0,7.0,92,0.00,,---,0.00,VWS V14.00,2013-03-18 07:17:00,
2013-03-18 02:20:00,41.9,39.8,29.69,North,9,4.0,7.0,92,0.00,,---,0.00,VWS V14.00,2013-03-18 07:20:00,
2013-03-18 02:22:00,41.8,39.7,29.69,North,9,4.0,6.0,92,0.00,,---,0.00,VWS V14.00,2013-03-18 07:22:00,
2013-03-18 02:25:00,41.8,39.7,29.69,North,11,6.0,6.0,92,0.00,,---,0.00,VWS V14.00,2013-03-18 07:25:00,
2013-03-18 02:27:00,41.8,39.7,29.70,North,11,5.0,6.0,92,0.00,,---,0.00,VWS V14.00,2013-03-18 07:27:00,
2013-03-18 02:30:00,41.8,39.7,29.70,North,11,5.0,6.0,92,0.00,,---,0.00,VWS V14.00,2013-03-18 07:30:00,
2013-03-18 02:32:00,41.9,39.8,29.70,North,11,6.0,7.0,92,0.00,,---,0.00,VWS V14.00,2013-03-18 07:32:00,
2013-03-18 02:35:00,41.9,39.8,29.70,North,11,5.0,7.0,92,0.00,,---,0.00,VWS V14.00,2013-03-18 07:35:00,
2013-03-18 02:37:00,41.9,39.8,29.69,NNE,15,6.0,10.0,92,0.00,,---,0.00,VWS V14.00,2013-03-18 07:37:00,
2013-03-18 02:40:00,41.9,39.8,29.69,NNE,15,5.0,10.0,92,0.00,,---,0.00,VWS V14.00,2013-03-18 07:40:00,
2013-03-18 02:42:00,41.8,39.7,29.69,NNE,15,5.0,8.0,92,0.00,,---,0.00,VWS V14.00,2013-03-18 07:42:00,
2013-03-18 02:45:00,41.8,39.7,29.70,NNE,15,5.0,8.0,92,0.00,,---,0.00,VWS V14.00,2013-03-18 07:45:00,
2013-03-18 02:47:00,41.8,39.7,29.70,NNE,15,5.0,9.0,92,0.00,,---,0.00,VWS V14.00,2013-03-18 07:47:00,
2013-03-18 02:50:00,41.8,39.7,29.71,NNE,15,5.0,9.0,92,0.00,,---,0.00,VWS V14.00,2013-03-18 07:50:00,
2013-03-18 02:52:00,41.7,39.5,29.71,NNE,15,5.0,6.0,92,0.00,,---,0.00,VWS V14.00,2013-03-18 07:52:00,
2013-03-18 02:55:00,41.6,39.5,29.71,NNE,15,3.0,7.0,92,0.00,,---,0.00,VWS V14.00,2013-03-18 07:55:00,
2013-03-18 02:57:00,41.5,39.3,29.71,NNE,15,3.0,6.0,92,0.00,,---,0.00,VWS V14.00,2013-03-18 07:57:00,
2013-03-18 03:00:00,41.5,39.3,29.72,NNE,15,4.0,6.0,92,0.00,,---,0.00,VWS V14.00,2013-03-18 08:00:00,
2013-03-18 03:02:00,41.4,39.2,29.72,NNE,15,5.0,7.0,92,0.00,,---,0.00,VWS V14.00,2013-03-18 08:02:00,
2013-03-18 03:05:00,41.4,39.3,29.72,NNE,15,4.0,7.0,92,0.00,,---,0.00,VWS V14.00,2013-03-18 08:05:00,
2013-03-18 03:07:00,41.3,39.2,29.72,NNE,13,4.0,9.0,92,0.00,,---,0.00,VWS V14.00,2013-03-18 08:07:00,
2013-03-18 03:10:00,41.3,39.2,29.72,NNE,13,5.0,9.0,92,0.00,,---,0.00,VWS V14.00,2013-03-18 08:10:00,
2013-03-18 03:12:00,41.2,39.1,29.72,NNE,13,4.0,7.0,92,0.00,,---,0.00,VWS V14.00,2013-03-18 08:12:00,
2013-03-18 03:15:00,41.1,39.0,29.72,NNE,13,5.0,7.0,92,0.00,,---,0.00,VWS V14.00,2013-03-18 08:15:00,
2013-03-18 03:20:00,41.1,39.0,29.72,NNE,22,5.0,9.0,92,0.00,,---,0.00,VWS V14.00,2013-03-18 08:20:00,
2013-03-18 03:25:00,41.2,39.3,29.72,NNE,22,7.0,10.0,93,0.00,,---,0.00,VWS V14.00,2013-03-18 08:25:00,
2013-03-18 03:30:00,41.5,39.6,29.72,North,0,7.0,12.0,93,0.00,,---,0.00,VWS V14.00,2013-03-18 08:30:00,
2013-03-18 03:35:00,41.7,39.8,29.73,North,0,8.0,13.0,93,0.00,,---,0.00,VWS V14.00,2013-03-18 08:35:00,
2013-03-18 03:40:00,42.0,40.1,29.73,North,0,9.0,15.0,93,0.00,,---,0.00,VWS V14.00,2013-03-18 08:40:00,
2013-03-18 03:45:00,42.2,40.3,29.73,North,0,8.0,14.0,93,0.00,,---,0.00,VWS V14.00,2013-03-18 08:45:00,
2013-03-18 03:50:00,42.4,40.5,29.73,North,0,6.0,11.0,93,0.00,,---,0.00,VWS V14.00,2013-03-18 08:50:00,
2013-03-18 03:55:00,42.4,40.5,29.74,North,0,6.0,11.0,93,0.00,,---,0.00,VWS V14.00,2013-03-18 08:55:00,
2013-03-18 04:00:00,42.5,40.6,29.74,North,0,8.0,12.0,93,0.00,,---,0.00,VWS V14.00,2013-03-18 09:00:00,
2013-03-18 04:05:00,42.5,40.6,29.74,North,0,9.0,14.0,93,0.00,,---,0.00,VWS V14.00,2013-03-18 09:05:00,
2013-03-18 04:10:00,42.5,40.6,29.74,North,0,6.0,9.0,93,0.00,,---,0.00,VWS V14.00,2013-03-18 09:10:00,
2013-03-18 04:15:00,42.5,40.6,29.74,North,0,8.0,12.0,93,0.00,,---,0.00,VWS V14.00,2013-03-18 09:15:00,
2013-03-18 04:20:00,42.4,40.5,29.74,NNE,22,7.0,11.0,93,0.00,,---,0.00,VWS V14.00,2013-03-18 09:20:00,
2013-03-18 04:25:00,42.3,40.4,29.75,North,0,9.0,14.0,93,0.00,,---,0.00,VWS V14.00,2013-03-18 09:25:00,
2013-03-18 04:30:00,42.2,40.3,29.75,North,0,6.0,11.0,93,0.00,,---,0.00,VWS V14.00,2013-03-18 09:30:00,
2013-03-18 04:35:00,42.2,40.3,29.75,North,0,6.0,10.0,93,0.00,,---,0.00,VWS V14.00,2013-03-18 09:35:00,
2013-03-18 04:40:00,42.2,40.3,29.75,North,0,7.0,11.0,93,0.00,,---,0.00,VWS V14.00,2013-03-18 09:40:00,
2013-03-18 04:45:00,42.2,40.3,29.75,North,0,5.0,10.0,93,0.00,,---,0.00,VWS V14.00,2013-03-18 09:45:00,
2013-03-18 04:50:00,42.2,40.3,29.76,North,0,6.0,9.0,93,0.00,,---,0.00,VWS V14.00,2013-03-18 09:50:00,
2013-03-18 04:55:00,42.2,40.3,29.75,North,0,6.0,11.0,93,0.00,,---,0.00,VWS V14.00,2013-03-18 09:55:00,
2013-03-18 05:00:00,42.2,40.3,29.75,NNE,22,9.0,14.0,93,0.00,,---,0.00,VWS V14.00,2013-03-18 10:00:00,
2013-03-18 05:05:00,42.2,40.3,29.75,NNE,22,8.0,14.0,93,0.00,,---,0.00,VWS V14.00,2013-03-18 10:05:00,
2013-03-18 05:10:00,42.2,40.3,29.74,NNE,22,9.0,13.0,93,0.00,,---,0.00,VWS V14.00,2013-03-18 10:10:00,
2013-03-18 05:15:00,42.1,40.2,29.74,NNE,22,6.0,11.0,93,0.00,,---,0.00,VWS V14.00,2013-03-18 10:15:00,
2013-03-18 05:20:00,42.1,40.2,29.76,NNE,22,7.0,11.0,93,0.00,,---,0.00,VWS V14.00,2013-03-18 10:20:00,
2013-03-18 05:25:00,42.1,40.2,29.77,NNE,22,3.0,9.0,93,0.00,,---,0.00,VWS V14.00,2013-03-18 10:25:00,
2013-03-18 05:30:00,42.1,40.2,29.80,NNE,22,2.0,5.0,93,0.00,,---,0.00,VWS V14.00,2013-03-18 10:30:00,
2013-03-18 05:35:00,42.2,40.3,29.81,NNE,22,3.0,6.0,93,0.00,,---,0.00,VWS V14.00,2013-03-18 10:35:00,
2013-03-18 05:40:00,42.2,40.3,29.79,NNE,22,5.0,7.0,93,0.00,,---,0.00,VWS V14.00,2013-03-18 10:40:00,
2013-03-18 05:45:00,42.2,40.3,29.78,NNE,22,9.0,12.0,93,0.00,,---,0.00,VWS V14.00,2013-03-18 10:45:00,
2013-03-18 05:50:00,42.2,40.3,29.77,NNE,22,7.0,11.0,93,0.00,,---,0.00,VWS V14.00,2013-03-18 10:50:00,
2013-03-18 05:55:00,42.2,40.0,29.76,NNE,22,7.0,11.0,92,0.00,,---,0.00,VWS V14.00,2013-03-18 10:55:00,
2013-03-18 06:00:00,42.1,40.0,29.75,NNE,22,5.0,7.0,92,0.00,,---,0.00,VWS V14.00,2013-03-18 11:00:00,
2013-03-18 06:05:00,42.0,39.8,29.76,NNE,22,5.0,6.0,92,0.00,,---,0.00,VWS V14.00,2013-03-18 11:05:00,
2013-03-18 06:10:00,41.9,39.8,29.77,NNE,22,5.0,9.0,92,0.00,,---,0.00,VWS V14.00,2013-03-18 11:10:00,
2013-03-18 06:15:00,41.9,39.8,29.78,NNE,22,4.0,7.0,92,0.00,,---,0.00,VWS V14.00,2013-03-18 11:15:00,
2013-03-18 06:20:00,41.7,39.5,29.78,NNE,22,2.0,4.0,92,0.00,,---,0.00,VWS V14.00,2013-03-18 11:20:00,
2013-03-18 06:23:00,41.7,39.5,29.78,NNE,22,2.0,4.0,92,0.00,,---,0.00,VWS V14.00,2013-03-18 11:23:00,
2013-03-18 06:25:00,41.5,39.3,29.77,NNE,19,0.0,2.0,92,0.00,,---,0.00,VWS V14.00,2013-03-18 11:25:00,
2013-03-18 06:28:00,41.3,39.2,29.79,NNE,19,2.0,5.0,92,0.00,,---,0.00,VWS V14.00,2013-03-18 11:28:00,
2013-03-18 06:30:00,41.2,39.1,29.79,NNE,19,5.0,5.0,92,0.00,,---,0.00,VWS V14.00,2013-03-18 11:30:00,
2013-03-18 06:33:00,41.0,38.9,29.80,NNE,19,2.0,5.0,92,0.00,,---,0.00,VWS V14.00,2013-03-18 11:33:00,
2013-03-18 06:35:00,41.0,38.9,29.80,NNE,19,2.0,5.0,92,0.00,,---,0.00,VWS V14.00,2013-03-18 11:35:00,
2013-03-18 06:38:00,40.9,38.8,29.82,NNE,18,4.0,6.0,92,0.00,,---,0.00,VWS V14.00,2013-03-18 11:38:00,
2013-03-18 06:40:00,40.8,38.7,29.82,NNE,18,5.0,6.0,92,0.00,,---,0.00,VWS V14.00,2013-03-18 11:40:00,
2013-03-18 06:43:00,40.8,38.7,29.82,NNE,18,4.0,5.0,92,0.00,,---,0.00,VWS V14.00,2013-03-18 11:43:00,
2013-03-18 06:45:00,40.8,38.7,29.82,NNE,18,4.0,6.0,92,0.00,,---,0.00,VWS V14.00,2013-03-18 11:45:00,
2013-03-18 06:48:00,40.9,38.8,29.82,NNE,18,3.0,6.0,92,0.00,,---,0.00,VWS V14.00,2013-03-18 11:48:00,
2013-03-18 06:50:00,40.9,38.8,29.81,NNE,18,3.0,6.0,92,0.00,,---,0.00,VWS V14.00,2013-03-18 11:50:00,
2013-03-18 06:53:00,40.9,38.8,29.81,NNE,18,4.0,7.0,92,0.00,,---,0.00,VWS V14.00,2013-03-18 11:53:00,
2013-03-18 06:55:00,40.9,38.8,29.82,NNE,18,4.0,7.0,92,0.00,,---,0.00,VWS V14.00,2013-03-18 11:55:00,
2013-03-18 06:58:00,40.9,38.8,29.82,NNE,18,3.0,7.0,92,0.00,,---,0.00,VWS V14.00,2013-03-18 11:58:00,
2013-03-18 07:00:00,40.9,38.8,29.81,NNE,18,3.0,7.0,92,0.00,,---,0.00,VWS V14.00,2013-03-18 12:00:00,
2013-03-18 07:03:00,40.9,38.8,29.81,NNE,18,2.0,4.0,92,0.00,,---,0.00,VWS V14.00,2013-03-18 12:03:00,
2013-03-18 07:05:00,40.9,38.8,29.82,NNE,18,0.0,4.0,92,0.00,,---,0.00,VWS V14.00,2013-03-18 12:05:00,
2013-03-18 07:08:00,40.9,38.8,29.82,NNE,18,0.0,0.0,92,0.00,,---,0.00,VWS V14.00,2013-03-18 12:08:00,
2013-03-18 07:10:00,40.9,38.8,29.82,NNE,18,0.0,0.0,92,0.00,,---,0.00,VWS V14.00,2013-03-18 12:10:00,
2013-03-18 07:13:00,40.9,38.8,29.82,NNE,18,0.0,0.0,92,0.00,,---,0.00,VWS V14.00,2013-03-18 12:13:00,
2013-03-18 07:15:00,40.9,38.8,29.82,NNE,18,0.0,0.0,92,0.00,,---,0.00,VWS V14.00,2013-03-18 12:15:00,
2013-03-18 07:18:00,40.8,38.7,29.83,NNE,18,0.0,0.0,92,0.00,,---,0.00,VWS V14.00,2013-03-18 12:18:00,
2013-03-18 07:20:00,40.9,38.8,29.83,NNE,18,0.0,0.0,92,0.00,,---,0.00,VWS V14.00,2013-03-18 12:20:00,
2013-03-18 07:23:00,40.8,38.7,29.84,NNE,18,0.0,0.0,92,0.00,,---,0.00,VWS V14.00,2013-03-18 12:23:00,
2013-03-18 07:25:00,40.9,38.8,29.84,NNE,18,0.0,0.0,92,0.00,,---,0.00,VWS V14.00,2013-03-18 12:25:00,
2013-03-18 07:28:00,40.8,38.7,29.85,NNE,18,0.0,0.0,92,0.00,,---,0.00,VWS V14.00,2013-03-18 12:28:00,
2013-03-18 07:30:00,40.7,38.6,29.85,NNE,18,3.0,4.0,92,0.00,,---,0.00,VWS V14.00,2013-03-18 12:30:00,
2013-03-18 07:33:00,40.6,38.5,29.85,NNE,18,2.0,4.0,92,0.00,,---,0.00,VWS V14.00,2013-03-18 12:33:00,
2013-03-18 07:35:00,40.5,38.4,29.85,NNE,18,2.0,4.0,92,0.00,,---,0.00,VWS V14.00,2013-03-18 12:35:00,
2013-03-18 07:38:00,40.4,38.3,29.85,NNE,18,4.0,5.0,92,0.00,,---,0.00,VWS V14.00,2013-03-18 12:38:00,
2013-03-18 07:40:00,40.4,38.3,29.85,NNE,18,4.0,5.0,92,0.00,,---,0.00,VWS V14.00,2013-03-18 12:40:00,
2013-03-18 07:43:00,40.2,38.1,29.85,NNE,18,3.0,6.0,92,0.00,,---,0.00,VWS V14.00,2013-03-18 12:43:00,
2013-03-18 07:45:00,40.2,38.1,29.85,NNE,18,2.0,6.0,92,0.00,,---,0.00,VWS V14.00,2013-03-18 12:45:00,
2013-03-18 07:48:00,40.2,38.1,29.85,NNE,18,3.0,5.0,92,0.00,,---,0.00,VWS V14.00,2013-03-18 12:48:00,
2013-03-18 07:50:00,40.2,38.1,29.85,NNE,18,2.0,5.0,92,0.00,,---,0.00,VWS V14.00,2013-03-18 12:50:00,
2013-03-18 07:53:00,40.1,38.0,29.86,NNE,18,4.0,5.0,92,0.00,,---,0.00,VWS V14.00,2013-03-18 12:53:00,
2013-03-18 07:55:00,40.1,38.0,29.86,NNE,18,4.0,5.0,92,0.00,,---,0.00,VWS V14.00,2013-03-18 12:55:00,
2013-03-18 07:58:00,40.1,38.0,29.86,NNE,18,3.0,5.0,92,0.00,,---,0.00,VWS V14.00,2013-03-18 12:58:00,
2013-03-18 08:00:00,40.1,38.0,29.86,NNE,18,3.0,6.0,92,0.00,,---,0.00,VWS V14.00,2013-03-18 13:00:00,
2013-03-18 08:03:00,40.1,38.0,29.87,NNE,18,5.0,7.0,92,0.00,,---,0.00,VWS V14.00,2013-03-18 13:03:00,
2013-03-18 08:05:00,40.1,38.0,29.87,NNE,18,6.0,7.0,92,0.00,,---,0.00,VWS V14.00,2013-03-18 13:05:00,
2013-03-18 08:08:00,40.1,38.0,29.87,NNE,18,7.0,7.0,92,0.00,,---,0.00,VWS V14.00,2013-03-18 13:08:00,
2013-03-18 08:10:00,40.1,38.0,29.87,NNE,17,6.0,8.0,92,0.00,,---,0.00,VWS V14.00,2013-03-18 13:10:00,
2013-03-18 08:13:00,40.2,38.1,29.87,NW,326,3.0,13.0,92,0.00,,---,0.00,VWS V14.00,2013-03-18 13:13:00,
2013-03-18 08:15:00,40.2,38.1,29.87,NW,326,4.0,13.0,92,0.00,,---,0.00,VWS V14.00,2013-03-18 13:15:00,
2013-03-18 08:18:00,40.3,38.2,29.87,NW,326,5.0,7.0,92,0.00,,---,0.00,VWS V14.00,2013-03-18 13:18:00,
2013-03-18 08:20:00,40.3,38.2,29.87,NW,326,6.0,7.0,92,0.00,,---,0.00,VWS V14.00,2013-03-18 13:20:00,
2013-03-18 08:23:00,40.5,38.4,29.88,NW,326,5.0,6.0,92,0.00,,---,0.00,VWS V14.00,2013-03-18 13:23:00,
2013-03-18 08:25:00,40.6,38.5,29.88,NW,326,5.0,7.0,92,0.00,,---,0.00,VWS V14.00,2013-03-18 13:25:00,
2013-03-18 08:28:00,40.8,38.7,29.88,NW,324,6.0,11.0,92,0.00,,---,0.00,VWS V14.00,2013-03-18 13:28:00,
2013-03-18 08:30:00,40.8,38.7,29.88,NW,324,5.0,11.0,92,0.00,,---,0.00,VWS V14.00,2013-03-18 13:30:00,
2013-03-18 08:33:00,40.9,38.8,29.88,NW,324,7.0,10.0,92,0.00,,---,0.00,VWS V14.00,2013-03-18 13:33:00,
2013-03-18 08:35:00,40.9,38.8,29.88,NW,323,9.0,11.0,92,0.00,,---,0.00,VWS V14.00,2013-03-18 13:35:00,
2013-03-18 08:38:00,41.0,38.9,29.88,NW,323,11.0,11.0,92,0.00,,---,0.00,VWS V14.00,2013-03-18 13:38:00,
2013-03-18 08:40:00,41.0,38.6,29.88,NW,321,9.0,12.0,91,0.00,,---,0.00,VWS V14.00,2013-03-18 13:40:00,
2013-03-18 08:43:00,41.0,38.6,29.89,NW,321,6.0,10.0,91,0.00,,---,0.00,VWS V14.00,2013-03-18 13:43:00,
2013-03-18 08:45:00,41.0,38.6,29.89,NW,319,7.0,11.0,91,0.00,,---,0.00,VWS V14.00,2013-03-18 13:45:00,
2013-03-18 08:48:00,41.0,40.2,29.88,NW,313,10.0,13.0,97,0.00,,---,0.00,VWS V14.00,2013-03-18 13:48:00,
2013-03-18 08:50:00,41.0,38.6,29.88,NW,319,8.0,13.0,91,0.00,,---,0.00,VWS V14.00,2013-03-18 13:50:00,
2013-03-18 08:53:00,41.1,38.7,29.88,NW,315,11.0,14.0,91,0.00,,---,0.00,VWS V14.00,2013-03-18 13:53:00,
2013-03-18 08:55:00,41.1,38.7,29.88,NNW,327,13.0,14.0,91,0.00,,---,0.00,VWS V14.00,2013-03-18 13:55:00,
2013-03-18 08:58:00,41.2,38.8,29.88,NNW,336,12.0,14.0,91,0.00,,---,0.00,VWS V14.00,2013-03-18 13:58:00,
2013-03-18 09:00:00,41.3,38.9,29.88,NW,326,9.0,14.0,91,0.00,,---,0.00,VWS V14.00,2013-03-18 14:00:00,
2013-03-18 09:03:00,41.5,39.1,29.88,NW,318,13.0,13.0,91,0.00,,---,0.00,VWS V14.00,2013-03-18 14:03:00,
2013-03-18 09:05:00,41.5,38.8,29.89,NW,319,7.0,13.0,90,0.00,,---,0.00,VWS V14.00,2013-03-18 14:05:00,
2013-03-18 09:08:00,41.7,39.0,29.89,NW,318,12.0,15.0,90,0.00,,---,0.00,VWS V14.00,2013-03-18 14:08:00,
2013-03-18 09:10:00,41.8,39.1,29.89,NW,314,9.0,16.0,90,0.00,,---,0.00,VWS V14.00,2013-03-18 14:10:00,
2013-03-18 09:13:00,42.0,39.3,29.89,NW,309,13.0,15.0,90,0.00,,---,0.00,VWS V14.00,2013-03-18 14:13:00,
2013-03-18 09:15:00,42.0,39.0,29.89,NW,314,10.0,17.0,89,0.00,,---,0.00,VWS V14.00,2013-03-18 14:15:00,
2013-03-18 09:18:00,42.2,39.2,29.90,NNW,327,10.0,18.0,89,0.00,,---,0.00,VWS V14.00,2013-03-18 14:18:00,
2013-03-18 09:20:00,42.3,39.3,29.89,NW,320,11.0,18.0,89,0.00,,---,0.00,VWS V14.00,2013-03-18 14:20:00,
2013-03-18 09:23:00,42.5,39.2,29.90,NW,321,13.0,19.0,88,0.00,,---,0.00,VWS V14.00,2013-03-18 14:23:00,
2013-03-18 09:25:00,42.6,39.3,29.90,NNW,332,12.0,19.0,88,0.00,,---,0.00,VWS V14.00,2013-03-18 14:25:00,
2013-03-18 09:28:00,42.8,39.5,29.89,NNW,341,14.0,18.0,88,0.00,,---,0.00,VWS V14.00,2013-03-18 14:28:00,
2013-03-18 09:30:00,43.0,39.4,29.89,NNW,337,12.0,18.0,87,0.00,,---,0.00,VWS V14.00,2013-03-18 14:30:00,
2013-03-18 09:33:00,43.2,39.6,29.89,NNW,347,10.0,16.0,87,0.00,,---,0.00,VWS V14.00,2013-03-18 14:33:00,
2013-03-18 09:35:00,43.3,39.4,29.89,NNW,348,15.0,16.0,86,0.00,,---,0.00,VWS V14.00,2013-03-18 14:35:00,
2013-03-18 09:38:00,43.5,39.3,29.90,NNW,342,13.0,20.0,85,0.00,,---,0.00,VWS V14.00,2013-03-18 14:38:00,
2013-03-18 09:40:00,43.6,39.4,29.90,NNW,332,16.0,20.0,85,0.00,,---,0.00,VWS V14.00,2013-03-18 14:40:00,
2013-03-18 09:43:00,43.5,39.0,29.90,NNW,346,12.0,18.0,84,0.00,,---,0.00,VWS V14.00,2013-03-18 14:43:00,
2013-03-18 09:45:00,43.5,39.0,29.90,North,351,9.0,18.0,84,0.00,,---,0.00,VWS V14.00,2013-03-18 14:45:00,
2013-03-18 09:48:00,43.4,38.3,29.90,North,5,15.0,20.0,82,0.00,,---,0.00,VWS V14.00,2013-03-18 14:48:00,
2013-03-18 09:50:00,43.4,38.3,29.91,North,351,11.0,20.0,82,0.00,,---,0.00,VWS V14.00,2013-03-18 14:50:00,
2013-03-18 09:53:00,43.2,38.1,29.91,North,360,12.0,20.0,82,0.00,,---,0.00,VWS V14.00,2013-03-18 14:53:00,
2013-03-18 09:55:00,43.1,38.0,29.91,North,355,13.0,20.0,82,0.00,,---,0.00,VWS V14.00,2013-03-18 14:55:00,
2013-03-18 09:58:00,42.9,37.8,29.91,North,360,12.0,17.0,82,0.00,,---,0.00,VWS V14.00,2013-03-18 14:58:00,
2013-03-18 10:00:00,42.9,37.8,29.91,NNW,348,11.0,17.0,82,0.00,,---,0.00,VWS V14.00,2013-03-18 15:00:00,
2013-03-18 10:03:00,42.7,37.6,29.91,North,355,12.0,21.0,82,0.00,,---,0.00,VWS V14.00,2013-03-18 15:03:00,
2013-03-18 10:05:00,42.7,37.6,29.91,NNW,347,10.0,21.0,82,0.00,,---,0.00,VWS V14.00,2013-03-18 15:05:00,
2013-03-18 10:08:00,42.6,37.8,29.92,North,360,13.0,18.0,83,0.00,,---,0.00,VWS V14.00,2013-03-18 15:08:00,
2013-03-18 10:10:00,42.5,37.7,29.92,NNW,348,12.0,18.0,83,0.00,,---,0.00,VWS V14.00,2013-03-18 15:10:00,
2013-03-18 10:13:00,42.5,37.7,29.91,NNW,345,7.0,14.0,83,0.00,,---,0.00,VWS V14.00,2013-03-18 15:13:00,
2013-03-18 10:15:00,42.5,37.7,29.92,North,355,10.0,16.0,83,0.00,,---,0.00,VWS V14.00,2013-03-18 15:15:00,
2013-03-18 10:18:00,42.5,37.7,29.92,NNW,328,7.0,16.0,83,0.00,,---,0.00,VWS V14.00,2013-03-18 15:18:00,
2013-03-18 10:20:00,42.4,37.6,29.93,NNW,340,11.0,16.0,83,0.00,,---,0.00,VWS V14.00,2013-03-18 15:20:00,
2013-03-18 10:23:00,42.4,37.6,29.92,NNW,338,7.0,13.0,83,0.00,,---,0.00,VWS V14.00,2013-03-18 15:23:00,
2013-03-18 10:25:00,42.5,37.7,29.93,NNW,335,11.0,14.0,83,0.00,,---,0.00,VWS V14.00,2013-03-18 15:25:00,
2013-03-18 10:28:00,42.5,37.7,29.93,NW,314,10.0,14.0,83,0.00,,---,0.00,VWS V14.00,2013-03-18 15:28:00,
2013-03-18 10:30:00,42.5,37.7,29.93,NW,326,12.0,17.0,83,0.00,,---,0.00,VWS V14.00,2013-03-18 15:30:00,
2013-03-18 10:33:00,42.5,37.7,29.93,NNW,346,12.0,15.0,83,0.00,,---,0.00,VWS V14.00,2013-03-18 15:33:00,
2013-03-18 10:35:00,42.5,37.7,29.93,NNW,340,9.0,15.0,83,0.00,,---,0.00,VWS V14.00,2013-03-18 15:35:00,
2013-03-18 10:38:00,42.5,37.7,29.94,NNW,344,13.0,18.0,83,0.00,,---,0.00,VWS V14.00,2013-03-18 15:38:00,
2013-03-18 10:40:00,42.6,37.8,29.94,NNW,330,10.0,18.0,83,0.00,,---,0.00,VWS V14.00,2013-03-18 15:40:00,
2013-03-18 10:43:00,42.6,37.8,29.94,NNW,338,10.0,15.0,83,0.00,,---,0.00,VWS V14.00,2013-03-18 15:43:00,
2013-03-18 10:45:00,42.6,37.8,29.94,NNW,332,12.0,15.0,83,0.00,,---,0.00,VWS V14.00,2013-03-18 15:45:00,
2013-03-18 10:48:00,42.7,37.9,29.94,North,355,12.0,14.0,83,0.00,,---,0.00,VWS V14.00,2013-03-18 15:48:00,
2013-03-18 10:50:00,42.7,37.9,29.94,NNW,344,9.0,14.0,83,0.00,,---,0.00,VWS V14.00,2013-03-18 15:50:00,
2013-03-18 10:53:00,42.7,37.9,29.94,NNW,331,10.0,16.0,83,0.00,,---,0.00,VWS V14.00,2013-03-18 15:53:00,
2013-03-18 10:55:00,42.8,38.0,29.94,NNW,330,11.0,16.0,83,0.00,,---,0.00,VWS V14.00,2013-03-18 15:55:00,
2013-03-18 10:58:00,42.9,38.1,29.94,North,355,10.0,16.0,83,0.00,,---,0.00,VWS V14.00,2013-03-18 15:58:00,
2013-03-18 11:00:00,42.9,38.1,29.94,NNW,346,9.0,16.0,83,0.00,,---,0.00,VWS V14.00,2013-03-18 16:00:00,
2013-03-18 11:03:00,43.0,38.2,29.94,North,349,10.0,16.0,83,0.00,,---,0.00,VWS V14.00,2013-03-18 16:03:00,
2013-03-18 11:05:00,43.0,38.2,29.94,NNW,347,10.0,16.0,83,0.00,,---,0.00,VWS V14.00,2013-03-18 16:05:00,
2013-03-18 11:08:00,43.2,38.4,29.94,NNW,340,12.0,13.0,83,0.00,,---,0.00,VWS V14.00,2013-03-18 16:08:00,
2013-03-18 11:10:00,43.3,38.5,29.94,NNW,338,11.0,14.0,83,0.00,,---,0.00,VWS V14.00,2013-03-18 16:10:00,
2013-03-18 11:13:00,43.5,38.4,29.94,NW,324,14.0,16.0,82,0.00,,---,0.00,VWS V14.00,2013-03-18 16:13:00,
2013-03-18 11:15:00,43.6,38.5,29.94,NNW,345,11.0,16.0,82,0.00,,---,0.00,VWS V14.00,2013-03-18 16:15:00,
2013-03-18 11:18:00,43.6,38.5,29.94,NNW,327,7.0,13.0,82,0.00,,---,0.00,VWS V14.00,2013-03-18 16:18:00,
2013-03-18 11:20:00,43.7,38.6,29.95,NNW,332,8.0,13.0,82,0.00,,---,0.00,VWS V14.00,2013-03-18 16:20:00,
2013-03-18 11:23:00,43.9,38.5,29.95,NNW,342,5.0,13.0,81,0.00,,---,0.00,VWS V14.00,2013-03-18 16:23:00,
2013-03-18 11:25:00,44.0,38.9,29.95,NW,324,9.0,13.0,82,0.00,,---,0.00,VWS V14.00,2013-03-18 16:25:00,
2013-03-18 11:28:00,44.2,38.8,29.95,NNW,329,7.0,12.0,81,0.00,,---,0.00,VWS V14.00,2013-03-18 16:28:00,
2013-03-18 11:30:00,44.3,38.8,29.95,NW,313,12.0,12.0,81,0.00,,---,0.00,VWS V14.00,2013-03-18 16:30:00,
2013-03-18 11:33:00,44.4,38.9,29.95,NNW,327,9.0,14.0,81,0.00,,---,0.00,VWS V14.00,2013-03-18 16:33:00,
2013-03-18 11:35:00,44.5,39.0,29.95,NNW,329,10.0,16.0,81,0.00,,---,0.00,VWS V14.00,2013-03-18 16:35:00,
2013-03-18 11:38:00,44.7,38.9,29.96,NW,324,7.0,15.0,80,0.00,,---,0.00,VWS V14.00,2013-03-18 16:38:00,
2013-03-18 11:40:00,44.7,38.9,29.96,NNW,329,17.0,17.0,80,0.00,,---,0.00,VWS V14.00,2013-03-18 16:40:00,
2013-03-18 11:43:00,44.9,38.8,29.96,NNW,336,12.0,17.0,79,0.00,,---,0.00,VWS V14.00,2013-03-18 16:43:00,
2013-03-18 11:45:00,45.0,39.2,29.96,NNW,348,10.0,17.0,80,0.00,,---,0.00,VWS V14.00,2013-03-18 16:45:00,
2013-03-18 11:48:00,45.3,39.2,29.96,NNW,340,5.0,17.0,79,0.00,,---,0.00,VWS V14.00,2013-03-18 16:48:00,
2013-03-18 11:50:00,45.4,39.3,29.96,North,349,14.0,17.0,79,0.00,,---,0.00,VWS V14.00,2013-03-18 16:50:00,
2013-03-18 11:53:00,45.5,39.0,29.96,NW,313,9.0,16.0,78,0.00,,---,0.00,VWS V14.00,2013-03-18 16:53:00,
2013-03-18 11:55:00,45.5,39.0,29.96,NNW,327,8.0,16.0,78,0.00,,---,0.00,VWS V14.00,2013-03-18 16:55:00,
2013-03-18 11:58:00,45.6,39.2,29.96,NW,320,15.0,15.0,78,0.00,,---,0.00,VWS V14.00,2013-03-18 16:58:00,
2013-03-18 12:00:00,45.7,39.2,29.96,NW,316,13.0,16.0,78,0.00,,---,0.00,VWS V14.00,2013-03-18 17:00:00,
2013-03-18 12:03:00,45.8,39.0,29.96,NW,326,12.0,16.0,77,0.00,,---,0.00,VWS V14.00,2013-03-18 17:03:00,
2013-03-18 12:05:00,45.8,39.0,29.96,NNW,341,15.0,16.0,77,0.00,,---,0.00,VWS V14.00,2013-03-18 17:05:00,
2013-03-18 12:08:00,46.1,39.3,29.96,NNE,15,6.0,15.0,77,0.00,,---,0.00,VWS V14.00,2013-03-18 17:08:00,
2013-03-18 12:10:00,46.3,39.8,29.96,NNW,331,9.0,15.0,78,0.00,,---,0.00,VWS V14.00,2013-03-18 17:10:00,
2013-03-18 12:12:00,46.9,40.1,29.96,North,355,8.0,15.0,77,0.00,,---,0.00,VWS V14.00,2013-03-18 17:12:00,
2013-03-18 12:15:00,47.0,39.8,29.96,NNW,339,9.0,15.0,76,0.00,,---,0.00,VWS V14.00,2013-03-18 17:15:00,
2013-03-18 12:17:00,47.3,39.8,29.96,NNW,331,13.0,13.0,75,0.00,,---,0.00,VWS V14.00,2013-03-18 17:17:00,
2013-03-18 12:20:00,47.4,39.9,29.96,NNW,336,6.0,13.0,75,0.00,,---,0.00,VWS V14.00,2013-03-18 17:20:00,
2013-03-18 12:22:00,47.5,39.6,29.96,NNW,344,7.0,14.0,74,0.00,,---,0.00,VWS V14.00,2013-03-18 17:22:00,
2013-03-18 12:25:00,47.6,39.7,29.95,NNW,342,6.0,14.0,74,0.00,,---,0.00,VWS V14.00,2013-03-18 17:25:00,
2013-03-18 12:27:00,47.9,40.0,29.95,NNW,327,9.0,12.0,74,0.00,,---,0.00,VWS V14.00,2013-03-18 17:27:00,
2013-03-18 12:30:00,48.0,39.8,29.95,NNW,335,7.0,12.0,73,0.00,,---,0.00,VWS V14.00,2013-03-18 17:30:00,
2013-03-18 12:32:00,48.1,39.5,29.95,NNW,339,10.0,16.0,72,0.00,,---,0.00,VWS V14.00,2013-03-18 17:32:00,
2013-03-18 12:35:00,48.1,39.5,29.95,NNW,348,13.0,16.0,72,0.00,,---,0.00,VWS V14.00,2013-03-18 17:35:00,
2013-03-18 12:37:00,48.2,39.6,29.95,NNW,338,6.0,14.0,72,0.00,,---,0.00,VWS V14.00,2013-03-18 17:37:00,
2013-03-18 12:40:00,48.3,39.7,29.95,NNW,338,5.0,14.0,72,0.00,,---,0.00,VWS V14.00,2013-03-18 17:40:00,
2013-03-18 12:42:00,48.6,40.0,29.95,North,355,10.0,13.0,72,0.00,,---,0.00,VWS V14.00,2013-03-18 17:42:00,
2013-03-18 12:45:00,48.7,40.1,29.95,NW,323,8.0,13.0,72,0.00,,---,0.00,VWS V14.00,2013-03-18 17:45:00,
2013-03-18 12:47:00,49.2,40.2,29.95,North,5,14.0,14.0,71,0.00,,---,0.00,VWS V14.00,2013-03-18 17:47:00,
2013-03-18 12:50:00,49.4,40.0,29.95,NNE,22,13.0,15.0,70,0.00,,---,0.00,VWS V14.00,2013-03-18 17:50:00,
2013-03-18 12:52:00,50.0,40.2,29.95,NNW,339,9.0,14.0,69,0.00,,---,0.00,VWS V14.00,2013-03-18 17:52:00,
2013-03-18 12:55:00,50.2,40.1,29.95,North,350,12.0,14.0,68,0.00,,---,0.00,VWS V14.00,2013-03-18 17:55:00,
2013-03-18 12:57:00,50.7,40.2,29.95,NNE,25,12.0,14.0,67,0.00,,---,0.00,VWS V14.00,2013-03-18 17:57:00,
2013-03-18 13:00:00,50.8,39.5,29.95,NNE,29,5.0,14.0,65,0.00,,---,0.00,VWS V14.00,2013-03-18 18:00:00,
2013-03-18 13:02:00,51.0,39.7,29.96,North,360,5.0,15.0,65,0.00,,---,0.00,VWS V14.00,2013-03-18 18:02:00,
2013-03-18 13:05:00,51.2,40.2,29.95,NW,324,14.0,15.0,66,0.00,,---,0.00,VWS V14.00,2013-03-18 18:05:00,
2013-03-18 13:07:00,51.4,39.2,29.95,NNE,28,9.0,16.0,63,0.00,,---,0.00,VWS V14.00,2013-03-18 18:07:00,
2013-03-18 13:10:00,51.4,39.2,29.95,NNE,15,11.0,16.0,63,0.00,,---,0.00,VWS V14.00,2013-03-18 18:10:00,
2013-03-18 13:12:00,51.4,39.2,29.95,North,360,7.0,17.0,63,0.00,,---,0.00,VWS V14.00,2013-03-18 18:12:00,
2013-03-18 13:15:00,51.4,39.2,29.95,North,360,10.0,17.0,63,0.00,,---,0.00,VWS V14.00,2013-03-18 18:15:00,
2013-03-18 13:17:00,51.6,39.4,29.95,NNE,29,12.0,12.0,63,0.00,,---,0.00,VWS V14.00,2013-03-18 18:17:00,
2013-03-18 13:20:00,51.7,39.5,29.95,North,360,6.0,15.0,63,0.00,,---,0.00,VWS V14.00,2013-03-18 18:20:00,
2013-03-18 13:22:00,52.1,39.5,29.95,NNW,334,12.0,13.0,62,0.00,,---,0.00,VWS V14.00,2013-03-18 18:22:00,
2013-03-18 13:25:00,52.3,39.3,29.95,North,360,4.0,13.0,61,0.00,,---,0.00,VWS V14.00,2013-03-18 18:25:00,
2013-03-18 13:27:00,52.5,39.0,29.95,NNE,22,13.0,16.0,60,0.00,,---,0.00,VWS V14.00,2013-03-18 18:27:00,
2013-03-18 13:30:00,52.6,39.1,29.95,NNE,26,9.0,16.0,60,0.00,,---,0.00,VWS V14.00,2013-03-18 18:30:00,
2013-03-18 13:32:00,52.9,39.0,29.95,NNE,26,4.0,13.0,59,0.00,,---,0.00,VWS V14.00,2013-03-18 18:32:00,
2013-03-18 13:35:00,53.0,39.1,29.95,North,5,6.0,14.0,59,0.00,,---,0.00,VWS V14.00,2013-03-18 18:35:00,
2013-03-18 13:37:00,53.3,38.9,29.95,NNE,19,7.0,16.0,58,0.00,,---,0.00,VWS V14.00,2013-03-18 18:37:00,
2013-03-18 13:40:00,53.2,38.8,29.95,NNE,24,6.0,16.0,58,0.00,,---,0.00,VWS V14.00,2013-03-18 18:40:00,
2013-03-18 13:42:00,53.2,38.8,29.94,NNE,23,12.0,14.0,58,0.00,,---,0.00,VWS V14.00,2013-03-18 18:42:00,
2013-03-18 13:45:00,53.2,38.8,29.94,North,5,13.0,18.0,58,0.00,,---,0.00,VWS V14.00,2013-03-18 18:45:00,
2013-03-18 13:47:00,53.3,38.5,29.94,NE,44,6.0,16.0,57,0.00,,---,0.00,VWS V14.00,2013-03-18 18:47:00,
2013-03-18 13:50:00,53.3,38.5,29.94,North,355,10.0,16.0,57,0.00,,---,0.00,VWS V14.00,2013-03-18 18:50:00,
2013-03-18 13:52:00,53.5,39.1,29.94,NNE,32,11.0,15.0,58,0.00,,---,0.00,VWS V14.00,2013-03-18 18:52:00,
2013-03-18 13:55:00,53.5,39.1,29.94,NNE,16,7.0,15.0,58,0.00,,---,0.00,VWS V14.00,2013-03-18 18:55:00,
2013-03-18 13:57:00,53.6,38.8,29.93,NE,42,8.0,12.0,57,0.00,,---,0.00,VWS V14.00,2013-03-18 18:57:00,
2013-03-18 14:00:00,53.6,39.2,29.93,NNE,31,8.0,12.0,58,0.00,,---,0.00,VWS V14.00,2013-03-18 19:00:00,
2013-03-18 14:02:00,54.0,39.1,29.93,NE,45,7.0,13.0,57,0.00,,---,0.00,VWS V14.00,2013-03-18 19:02:00,
2013-03-18 14:05:00,54.1,39.2,29.93,NNE,28,11.0,14.0,57,0.00,,---,0.00,VWS V14.00,2013-03-18 19:05:00,
2013-03-18 14:07:00,54.6,39.2,29.93,North,11,9.0,14.0,56,0.00,,---,0.00,VWS V14.00,2013-03-18 19:07:00,
2013-03-18 14:10:00,54.8,39.4,29.93,NNE,21,8.0,14.0,56,0.00,,---,0.00,VWS V14.00,2013-03-18 19:10:00,
2013-03-18 14:12:00,55.0,39.2,29.93,NNE,23,7.0,15.0,55,0.00,,---,0.00,VWS V14.00,2013-03-18 19:12:00,
2013-03-18 14:15:00,54.9,39.0,29.93,NNE,15,6.0,15.0,55,0.00,,---,0.00,VWS V14.00,2013-03-18 19:15:00,
2013-03-18 14:17:00,54.9,39.0,29.93,NE,35,13.0,14.0,55,0.00,,---,0.00,VWS V14.00,2013-03-18 19:17:00,
2013-03-18 14:20:00,54.9,38.6,29.93,NNE,13,12.0,18.0,54,0.00,,---,0.00,VWS V14.00,2013-03-18 19:20:00,
2013-03-18 14:22:00,55.0,38.2,29.94,NNW,346,10.0,14.0,53,0.00,,---,0.00,VWS V14.00,2013-03-18 19:22:00,
2013-03-18 14:25:00,55.1,39.2,29.93,North,9,6.0,14.0,55,0.00,,---,0.00,VWS V14.00,2013-03-18 19:25:00,
2013-03-18 14:27:00,55.4,39.0,29.93,North,355,8.0,13.0,54,0.00,,---,0.00,VWS V14.00,2013-03-18 19:27:00,
2013-03-18 14:30:00,55.5,39.1,29.93,NNE,21,8.0,14.0,54,0.00,,---,0.00,VWS V14.00,2013-03-18 19:30:00,
2013-03-18 14:32:00,55.9,39.0,29.93,North,360,12.0,15.0,53,0.00,,---,0.00,VWS V14.00,2013-03-18 19:32:00,
2013-03-18 14:35:00,55.9,38.5,29.93,North,5,4.0,15.0,52,0.00,,---,0.00,VWS V14.00,2013-03-18 19:35:00,
2013-03-18 14:37:00,55.8,38.0,29.93,NNE,33,12.0,14.0,51,0.00,,---,0.00,VWS V14.00,2013-03-18 19:37:00,
2013-03-18 14:40:00,55.7,38.4,29.93,NNE,17,10.0,14.0,52,0.00,,---,0.00,VWS V14.00,2013-03-18 19:40:00,
2013-03-18 14:42:00,55.8,38.5,29.93,NNE,30,6.0,12.0,52,0.00,,---,0.00,VWS V14.00,2013-03-18 19:42:00,
2013-03-18 14:45:00,55.9,38.5,29.93,NNE,33,8.0,14.0,52,0.00,,---,0.00,VWS V14.00,2013-03-18 19:45:00,
2013-03-18 14:47:00,56.1,38.2,29.93,North,5,8.0,11.0,51,0.00,,---,0.00,VWS V14.00,2013-03-18 19:47:00,
2013-03-18 14:50:00,56.2,38.3,29.93,North,11,12.0,15.0,51,0.00,,---,0.00,VWS V14.00,2013-03-18 19:50:00,
2013-03-18 14:52:00,56.3,37.9,29.93,NNE,28,13.0,17.0,50,0.00,,---,0.00,VWS V14.00,2013-03-18 19:52:00,
2013-03-18 14:55:00,56.3,37.9,29.93,North,360,12.0,17.0,50,0.00,,---,0.00,VWS V14.00,2013-03-18 19:55:00,
2013-03-18 14:57:00,56.3,37.9,29.93,North,10,7.0,12.0,50,0.00,,---,0.00,VWS V14.00,2013-03-18 19:57:00,
2013-03-18 15:00:00,56.4,38.0,29.93,NNW,329,5.0,12.0,50,0.00,,---,0.00,VWS V14.00,2013-03-18 20:00:00,
2013-03-18 15:02:00,56.6,38.2,29.93,NNW,335,0.0,12.0,50,0.00,,---,0.00,VWS V14.00,2013-03-18 20:02:00,
2013-03-18 15:05:00,56.8,38.4,29.93,NNW,335,1.0,12.0,50,0.00,,---,0.00,VWS V14.00,2013-03-18 20:05:00,
2013-03-18 15:07:00,57.0,37.5,29.93,NNW,333,5.0,8.0,48,0.00,,---,0.00,VWS V14.00,2013-03-18 20:07:00,
2013-03-18 15:10:00,57.1,38.1,29.93,NNW,333,4.0,8.0,49,0.00,,---,0.00,VWS V14.00,2013-03-18 20:10:00,
2013-03-18 15:12:00,57.4,38.4,29.93,NNW,333,1.0,4.0,49,0.00,,---,0.00,VWS V14.00,2013-03-18 20:12:00,
2013-03-18 15:15:00,57.5,39.0,29.93,NNE,13,6.0,12.0,50,0.00,,---,0.00,VWS V14.00,2013-03-18 20:15:00,
2013-03-18 15:17:00,57.8,37.7,29.93,North,5,7.0,12.0,47,0.00,,---,0.00,VWS V14.00,2013-03-18 20:17:00,
2013-03-18 15:20:00,57.9,37.8,29.93,NNW,346,4.0,12.0,47,0.00,,---,0.00,VWS V14.00,2013-03-18 20:20:00,
2013-03-18 15:22:00,58.0,37.9,29.93,North,355,3.0,7.0,47,0.00,,---,0.00,VWS V14.00,2013-03-18 20:22:00,
2013-03-18 15:25:00,58.1,38.5,29.93,North,5,6.0,9.0,48,0.00,,---,0.00,VWS V14.00,2013-03-18 20:25:00,
2013-03-18 15:27:00,58.5,38.4,29.93,NNE,17,5.0,10.0,47,0.00,,---,0.00,VWS V14.00,2013-03-18 20:27:00,
2013-03-18 15:30:00,58.5,38.4,29.93,NNE,21,4.0,10.0,47,0.00,,---,0.00,VWS V14.00,2013-03-18 20:30:00,
2013-03-18 15:32:00,58.7,37.4,29.93,NNE,28,7.0,10.0,45,0.00,,---,0.00,VWS V14.00,2013-03-18 20:32:00,
2013-03-18 15:35:00,58.7,37.4,29.93,NNE,28,1.0,10.0,45,0.00,,---,0.00,VWS V14.00,2013-03-18 20:35:00,
2013-03-18 15:37:00,58.6,37.3,29.92,NNE,29,0.0,4.0,45,0.00,,---,0.00,VWS V14.00,2013-03-18 20:37:00,
2013-03-18 15:40:00,58.6,37.9,29.92,NNE,29,0.0,4.0,46,0.00,,---,0.00,VWS V14.00,2013-03-18 20:40:00,
2013-03-18 15:42:00,59.0,37.1,29.92,NNE,30,2.0,10.0,44,0.00,,---,0.00,VWS V14.00,2013-03-18 20:42:00,
2013-03-18 15:45:00,59.0,37.7,29.92,North,11,11.0,12.0,45,0.00,,---,0.00,VWS V14.00,2013-03-18 20:45:00,
2013-03-18 15:47:00,59.1,37.8,29.92,North,5,7.0,11.0,45,0.00,,---,0.00,VWS V14.00,2013-03-18 20:47:00,
2013-03-18 15:50:00,59.2,37.3,29.92,North,9,3.0,11.0,44,0.00,,---,0.00,VWS V14.00,2013-03-18 20:50:00,
2013-03-18 15:52:00,59.4,37.5,29.92,NE,51,7.0,10.0,44,0.00,,---,0.00,VWS V14.00,2013-03-18 20:52:00,
2013-03-18 15:55:00,59.4,37.5,29.92,NE,49,4.0,10.0,44,0.00,,---,0.00,VWS V14.00,2013-03-18 20:55:00,
2013-03-18 15:57:00,59.4,37.5,29.92,NE,37,4.0,10.0,44,0.00,,---,0.00,VWS V14.00,2013-03-18 20:57:00,
2013-03-18 16:00:00,59.4,37.5,29.92,NNE,30,5.0,10.0,44,0.00,,---,0.00,VWS V14.00,2013-03-18 21:00:00,
2013-03-18 16:02:00,59.6,35.3,29.92,NW,326,6.0,17.0,40,0.00,,---,0.00,VWS V14.00,2013-03-18 21:02:00,
2013-03-18 16:05:00,59.8,34.8,29.93,NNW,338,11.0,17.0,39,0.00,,---,0.00,VWS V14.00,2013-03-18 21:05:00,
2013-03-18 16:07:00,60.0,35.0,29.93,NNW,348,9.0,14.0,39,0.00,,---,0.00,VWS V14.00,2013-03-18 21:07:00,
2013-03-18 16:10:00,60.1,35.1,29.93,NNW,336,9.0,14.0,39,0.00,,---,0.00,VWS V14.00,2013-03-18 21:10:00,
2013-03-18 16:12:00,60.3,34.6,29.93,NW,313,9.0,15.0,38,0.00,,---,0.00,VWS V14.00,2013-03-18 21:12:00,
2013-03-18 16:15:00,60.3,34.6,29.93,WNW,292,5.0,15.0,38,0.00,,---,0.00,VWS V14.00,2013-03-18 21:15:00,
2013-03-18 16:17:00,60.3,34.6,29.93,WNW,300,2.0,8.0,38,0.00,,---,0.00,VWS V14.00,2013-03-18 21:17:00,
2013-03-18 16:22:00,60.5,34.8,29.93,North,355,11.0,17.0,38,0.00,,---,0.00,VWS V14.00,2013-03-18 21:22:00,
2013-03-18 16:27:00,60.7,34.3,29.93,NNW,332,12.0,13.0,37,0.00,,---,0.00,VWS V14.00,2013-03-18 21:27:00,
2013-03-18 16:30:00,60.8,34.4,29.93,North,355,10.0,13.0,37,0.00,,---,0.00,VWS V14.00,2013-03-18 21:30:00,
2013-03-18 16:32:00,61.0,34.6,29.93,North,350,7.0,12.0,37,0.00,,---,0.00,VWS V14.00,2013-03-18 21:32:00,
2013-03-18 16:35:00,61.0,34.6,29.93,NNW,336,9.0,12.0,37,0.00,,---,0.00,VWS V14.00,2013-03-18 21:35:00,
2013-03-18 16:37:00,61.0,34.6,29.93,North,351,2.0,12.0,37,0.00,,---,0.00,VWS V14.00,2013-03-18 21:37:00,
2013-03-18 16:40:00,61.0,34.6,29.93,NW,319,11.0,13.0,37,0.00,,---,0.00,VWS V14.00,2013-03-18 21:40:00,
2013-03-18 16:42:00,61.0,33.2,29.93,NNW,335,3.0,13.0,35,0.00,,---,0.00,VWS V14.00,2013-03-18 21:42:00,
2013-03-18 16:45:00,61.0,33.2,29.93,NNW,329,10.0,13.0,35,0.00,,---,0.00,VWS V14.00,2013-03-18 21:45:00,
2013-03-18 16:47:00,61.1,32.5,29.93,NW,311,12.0,12.0,34,0.00,,---,0.00,VWS V14.00,2013-03-18 21:47:00,
2013-03-18 16:50:00,61.1,32.5,29.93,NW,325,7.0,13.0,34,0.00,,---,0.00,VWS V14.00,2013-03-18 21:50:00,
2013-03-18 16:52:00,61.2,32.6,29.93,NW,325,9.0,13.0,34,0.00,,---,0.00,VWS V14.00,2013-03-18 21:52:00,
2013-03-18 16:55:00,61.2,31.9,29.93,NW,306,9.0,13.0,33,0.00,,---,0.00,VWS V14.00,2013-03-18 21:55:00,
2013-03-18 16:57:00,61.3,32.7,29.92,NW,325,9.0,10.0,34,0.00,,---,0.00,VWS V14.00,2013-03-18 21:57:00,
2013-03-18 17:00:00,61.3,32.7,29.92,NNW,327,3.0,10.0,34,0.00,,---,0.00,VWS V14.00,2013-03-18 22:00:00,
2013-03-18 17:02:00,61.4,33.5,29.92,NNE,30,4.0,13.0,35,0.00,,---,0.00,VWS V14.00,2013-03-18 22:02:00,
2013-03-18 17:05:00,61.4,33.5,29.92,North,349,7.0,13.0,35,0.00,,---,0.00,VWS V14.00,2013-03-18 22:05:00,
2013-03-18 17:08:00,61.4,32.8,29.92,North,5,0.0,12.0,34,0.00,,---,0.00,VWS V14.00,2013-03-18 22:08:00,
2013-03-18 17:10:00,61.4,32.8,29.92,NW,322,9.0,12.0,34,0.00,,---,0.00,VWS V14.00,2013-03-18 22:10:00,
2013-03-18 17:13:00,61.5,32.9,29.92,NNW,344,3.0,12.0,34,0.00,,---,0.00,VWS V14.00,2013-03-18 22:13:00,
2013-03-18 17:15:00,61.6,32.2,29.92,NW,320,14.0,14.0,33,0.00,,---,0.00,VWS V14.00,2013-03-18 22:15:00,
2013-03-18 17:17:00,61.6,30.7,29.92,NW,315,10.0,14.0,31,0.00,,---,0.00,VWS V14.00,2013-03-18 22:17:00,
2013-03-18 17:20:00,61.6,30.7,29.92,NNW,338,10.0,14.0,31,0.00,,---,0.00,VWS V14.00,2013-03-18 22:20:00,
2013-03-18 17:23:00,61.7,32.3,29.92,NNE,19,5.0,15.0,33,0.00,,---,0.00,VWS V14.00,2013-03-18 22:23:00,
2013-03-18 17:25:00,61.7,31.6,29.92,North,355,10.0,15.0,32,0.00,,---,0.00,VWS V14.00,2013-03-18 22:25:00,
2013-03-18 17:28:00,61.7,31.6,29.93,North,355,10.0,13.0,32,0.00,,---,0.00,VWS V14.00,2013-03-18 22:28:00,
2013-03-18 17:30:00,61.7,30.8,29.92,NNW,342,5.0,13.0,31,0.00,,---,0.00,VWS V14.00,2013-03-18 22:30:00,
2013-03-18 17:33:00,61.6,30.7,29.93,NW,322,6.0,14.0,31,0.00,,---,0.00,VWS V14.00,2013-03-18 22:33:00,
2013-03-18 17:35:00,61.6,31.5,29.93,North,5,7.0,14.0,32,0.00,,---,0.00,VWS V14.00,2013-03-18 22:35:00,
2013-03-18 17:38:00,61.6,31.5,29.92,North,5,10.0,15.0,32,0.00,,---,0.00,VWS V14.00,2013-03-18 22:38:00,
2013-03-18 17:40:00,61.6,30.7,29.93,North,5,6.0,15.0,31,0.00,,---,0.00,VWS V14.00,2013-03-18 22:40:00,
2013-03-18 17:43:00,61.5,32.2,29.93,NNW,344,11.0,13.0,33,0.00,,---,0.00,VWS V14.00,2013-03-18 22:43:00,
2013-03-18 17:45:00,61.4,31.3,29.93,NNW,342,6.0,13.0,32,0.00,,---,0.00,VWS V14.00,2013-03-18 22:45:00,
2013-03-18 17:48:00,61.5,31.4,29.93,North,350,5.0,13.0,32,0.00,,---,0.00,VWS V14.00,2013-03-18 22:48:00,
2013-03-18 17:50:00,61.5,32.2,29.93,NNW,344,7.0,13.0,33,0.00,,---,0.00,VWS V14.00,2013-03-18 22:50:00,
2013-03-18 17:53:00,61.5,30.6,29.93,North,350,4.0,13.0,31,0.00,,---,0.00,VWS V14.00,2013-03-18 22:53:00,
2013-03-18 17:55:00,61.6,30.7,29.93,NNW,331,13.0,15.0,31,0.00,,---,0.00,VWS V14.00,2013-03-18 22:55:00,
2013-03-18 17:58:00,61.5,30.6,29.93,NW,324,13.0,15.0,31,0.00,,---,0.00,VWS V14.00,2013-03-18 22:58:00,
2013-03-18 18:00:00,61.4,30.5,29.93,NNW,338,9.0,16.0,31,0.00,,---,0.00,VWS V14.00,2013-03-18 23:00:00,
2013-03-18 18:03:00,61.3,30.4,29.93,NNW,327,11.0,14.0,31,0.00,,---,0.00,VWS V14.00,2013-03-18 23:03:00,
2013-03-18 18:05:00,61.2,30.4,29.93,NW,318,10.0,14.0,31,0.00,,---,0.00,VWS V14.00,2013-03-18 23:05:00,
2013-03-18 18:08:00,61.1,30.3,29.93,NNW,334,9.0,14.0,31,0.00,,---,0.00,VWS V14.00,2013-03-18 23:08:00,
2013-03-18 18:10:00,61.0,31.0,29.93,NNW,337,5.0,14.0,32,0.00,,---,0.00,VWS V14.00,2013-03-18 23:10:00,
2013-03-18 18:13:00,61.0,30.2,29.93,NNW,346,5.0,11.0,31,0.00,,---,0.00,VWS V14.00,2013-03-18 23:13:00,
2013-03-18 18:15:00,60.9,30.1,29.93,North,360,5.0,11.0,31,0.00,,---,0.00,VWS V14.00,2013-03-18 23:15:00,
2013-03-18 18:18:00,60.7,29.9,29.93,NNW,348,9.0,12.0,31,0.00,,---,0.00,VWS V14.00,2013-03-18 23:18:00,
2013-03-18 18:20:00,60.7,29.9,29.93,North,5,9.0,12.0,31,0.00,,---,0.00,VWS V14.00,2013-03-18 23:20:00,
2013-03-18 18:23:00,60.5,29.7,29.93,NNW,343,10.0,12.0,31,0.00,,---,0.00,VWS V14.00,2013-03-18 23:23:00,
2013-03-18 18:25:00,60.5,28.9,29.93,North,360,6.0,15.0,30,0.00,,---,0.00,VWS V14.00,2013-03-18 23:25:00,
2013-03-18 18:28:00,60.4,29.6,29.93,North,5,8.0,11.0,31,0.00,,---,0.00,VWS V14.00,2013-03-18 23:28:00,
2013-03-18 18:30:00,60.4,28.9,29.93,North,355,6.0,12.0,30,0.00,,---,0.00,VWS V14.00,2013-03-18 23:30:00,
2013-03-18 18:33:00,60.3,28.8,29.93,North,349,7.0,13.0,30,0.00,,---,0.00,VWS V14.00,2013-03-18 23:33:00,
2013-03-18 18:35:00,60.2,29.5,29.93,North,349,7.0,13.0,31,0.00,,---,0.00,VWS V14.00,2013-03-18 23:35:00,
2013-03-18 18:38:00,60.2,29.5,29.93,NNW,346,8.0,10.0,31,0.00,,---,0.00,VWS V14.00,2013-03-18 23:38:00,
2013-03-18 18:40:00,60.1,29.4,29.93,NNW,347,3.0,11.0,31,0.00,,---,0.00,VWS V14.00,2013-03-18 23:40:00,
2013-03-18 18:43:00,60.0,29.3,29.93,NNW,347,2.0,8.0,31,0.00,,---,0.00,VWS V14.00,2013-03-18 23:43:00,
2013-03-18 18:45:00,60.0,29.3,29.93,NNW,347,3.0,8.0,31,0.00,,---,0.00,VWS V14.00,2013-03-18 23:45:00,
2013-03-18 18:48:00,59.8,29.1,29.94,NNW,346,4.0,7.0,31,0.00,,---,0.00,VWS V14.00,2013-03-18 23:48:00,
2013-03-18 18:50:00,59.8,29.9,29.94,NNW,346,2.0,7.0,32,0.00,,---,0.00,VWS V14.00,2013-03-18 23:50:00,
2013-03-18 18:53:00,59.7,30.6,29.94,NNW,344,8.0,9.0,33,0.00,,---,0.00,VWS V14.00,2013-03-18 23:53:00,
2013-03-18 18:55:00,59.6,29.7,29.94,NNW,344,4.0,9.0,32,0.00,,---,0.00,VWS V14.00,2013-03-18 23:55:00,
2013-03-18 18:58:00,59.4,29.6,29.94,NNW,345,4.0,6.0,32,0.00,,---,0.00,VWS V14.00,2013-03-18 23:58:00,
2013-03-18 19:00:00,59.2,29.4,29.94,NNW,345,4.0,6.0,32,0.00,,---,0.00,VWS V14.00,2013-03-19 00:00:00,
2013-03-18 19:03:00,59.0,30.0,29.94,NNW,345,4.0,5.0,33,0.00,,---,0.00,VWS V14.00,2013-03-19 00:03:00,
2013-03-18 19:05:00,59.0,29.2,29.94,NNW,345,2.0,5.0,32,0.00,,---,0.00,VWS V14.00,2013-03-19 00:05:00,
2013-03-18 19:08:00,58.6,29.6,29.94,NNW,346,3.0,5.0,33,0.00,,---,0.00,VWS V14.00,2013-03-19 00:08:00,
2013-03-18 19:10:00,58.5,28.8,29.94,North,355,4.0,7.0,32,0.00,,---,0.00,VWS V14.00,2013-03-19 00:10:00,
2013-03-18 19:13:00,58.2,29.3,29.94,North,355,3.0,6.0,33,0.00,,---,0.00,VWS V14.00,2013-03-19 00:13:00,
2013-03-18 19:15:00,58.1,29.2,29.94,North,355,5.0,6.0,33,0.00,,---,0.00,VWS V14.00,2013-03-19 00:15:00,
2013-03-18 19:18:00,57.8,28.9,29.95,North,355,4.0,6.0,33,0.00,,---,0.00,VWS V14.00,2013-03-19 00:18:00,
2013-03-18 19:20:00,57.7,29.5,29.95,North,355,5.0,6.0,34,0.00,,---,0.00,VWS V14.00,2013-03-19 00:20:00,
2013-03-18 19:23:00,57.3,28.5,29.95,North,355,4.0,6.0,33,0.00,,---,0.00,VWS V14.00,2013-03-19 00:23:00,
2013-03-18 19:25:00,57.2,29.1,29.95,North,355,1.0,6.0,34,0.00,,---,0.00,VWS V14.00,2013-03-19 00:25:00,
2013-03-18 19:28:00,56.9,28.8,29.95,North,355,2.0,4.0,34,0.00,,---,0.00,VWS V14.00,2013-03-19 00:28:00,
2013-03-18 19:30:00,56.8,28.8,29.95,North,355,2.0,4.0,34,0.00,,---,0.00,VWS V14.00,2013-03-19 00:30:00,
2013-03-18 19:33:00,56.4,28.4,29.95,North,355,1.0,4.0,34,0.00,,---,0.00,VWS V14.00,2013-03-19 00:33:00,
2013-03-18 19:35:00,56.3,29.0,29.95,North,355,1.0,4.0,35,0.00,,---,0.00,VWS V14.00,2013-03-19 00:35:00,
2013-03-18 19:38:00,56.0,28.8,29.96,North,355,2.0,4.0,35,0.00,,---,0.00,VWS V14.00,2013-03-19 00:38:00,
2013-03-18 19:40:00,55.9,28.0,29.96,North,355,3.0,4.0,34,0.00,,---,0.00,VWS V14.00,2013-03-19 00:40:00,
2013-03-18 19:43:00,55.6,28.4,29.96,North,355,2.0,5.0,35,0.00,,---,0.00,VWS V14.00,2013-03-19 00:43:00,
2013-03-18 19:45:00,55.5,28.3,29.96,North,355,2.0,5.0,35,0.00,,---,0.00,VWS V14.00,2013-03-19 00:45:00,
2013-03-18 19:48:00,55.2,28.0,29.96,North,355,2.0,4.0,35,0.00,,---,0.00,VWS V14.00,2013-03-19 00:48:00,
2013-03-18 19:50:00,55.1,28.0,29.96,North,355,1.0,4.0,35,0.00,,---,0.00,VWS V14.00,2013-03-19 00:50:00,
2013-03-18 19:53:00,54.9,27.8,29.96,North,355,1.0,3.0,35,0.00,,---,0.00,VWS V14.00,2013-03-19 00:53:00,
2013-03-18 19:55:00,54.8,27.7,29.96,North,355,0.0,3.0,35,0.00,,---,0.00,VWS V14.00,2013-03-19 00:55:00,
2013-03-18 19:58:00,54.6,28.2,29.96,North,355,0.0,0.0,36,0.00,,---,0.00,VWS V14.00,2013-03-19 00:58:00,
2013-03-18 20:00:00,54.5,28.1,29.96,North,355,0.0,0.0,36,0.00,,---,0.00,VWS V14.00,2013-03-19 01:00:00,
2013-03-18 20:03:00,54.4,28.0,29.96,North,355,0.0,0.0,36,0.00,,---,0.00,VWS V14.00,2013-03-19 01:03:00,
2013-03-18 20:05:00,54.3,27.2,29.96,North,355,0.0,0.0,35,0.00,,---,0.00,VWS V14.00,2013-03-19 01:05:00,
2013-03-18 20:08:00,54.1,27.8,29.96,North,355,0.0,0.0,36,0.00,,---,0.00,VWS V14.00,2013-03-19 01:08:00,
2013-03-18 20:10:00,54.1,27.8,29.96,North,355,0.0,0.0,36,0.00,,---,0.00,VWS V14.00,2013-03-19 01:10:00,
2013-03-18 20:13:00,54.0,27.7,29.97,North,355,0.0,0.0,36,0.00,,---,0.00,VWS V14.00,2013-03-19 01:13:00,
2013-03-18 20:15:00,54.0,27.7,29.97,North,355,0.0,0.0,36,0.00,,---,0.00,VWS V14.00,2013-03-19 01:15:00,
2013-03-18 20:18:00,53.9,27.6,29.97,North,355,0.0,0.0,36,0.00,,---,0.00,VWS V14.00,2013-03-19 01:18:00,
2013-03-18 20:20:00,53.8,27.5,29.97,North,355,0.0,0.0,36,0.00,,---,0.00,VWS V14.00,2013-03-19 01:20:00,
2013-03-18 20:23:00,53.7,27.4,29.97,North,355,0.0,0.0,36,0.00,,---,0.00,VWS V14.00,2013-03-19 01:23:00,
2013-03-18 20:25:00,53.6,27.3,29.97,North,355,0.0,0.0,36,0.00,,---,0.00,VWS V14.00,2013-03-19 01:25:00,
2013-03-18 20:28:00,53.4,27.8,29.97,North,355,0.0,0.0,37,0.00,,---,0.00,VWS V14.00,2013-03-19 01:28:00,
2013-03-18 20:30:00,53.3,27.7,29.97,North,355,0.0,0.0,37,0.00,,---,0.00,VWS V14.00,2013-03-19 01:30:00,
2013-03-18 20:33:00,53.1,26.9,29.97,North,355,0.0,0.0,36,0.00,,---,0.00,VWS V14.00,2013-03-19 01:33:00,
2013-03-18 20:35:00,53.0,27.4,29.97,North,355,0.0,0.0,37,0.00,,---,0.00,VWS V14.00,2013-03-19 01:35:00,
2013-03-18 20:38:00,52.9,27.4,29.97,North,355,0.0,0.0,37,0.00,,---,0.00,VWS V14.00,2013-03-19 01:38:00,
2013-03-18 20:40:00,52.8,27.3,29.97,North,355,0.0,0.0,37,0.00,,---,0.00,VWS V14.00,2013-03-19 01:40:00,
2013-03-18 20:43:00,52.6,27.1,29.97,North,355,0.0,0.0,37,0.00,,---,0.00,VWS V14.00,2013-03-19 01:43:00,
2013-03-18 20:45:00,52.6,27.1,29.96,North,355,0.0,0.0,37,0.00,,---,0.00,VWS V14.00,2013-03-19 01:45:00,
2013-03-18 20:48:00,52.3,26.8,29.97,North,355,3.0,3.0,37,0.00,,---,0.00,VWS V14.00,2013-03-19 01:48:00,
2013-03-18 20:50:00,52.2,26.7,29.98,North,355,2.0,4.0,37,0.00,,---,0.00,VWS V14.00,2013-03-19 01:50:00,
2013-03-18 20:53:00,51.9,27.1,29.98,North,355,0.0,3.0,38,0.00,,---,0.00,VWS V14.00,2013-03-19 01:53:00,
2013-03-18 20:55:00,51.8,27.0,29.98,North,355,1.0,3.0,38,0.00,,---,0.00,VWS V14.00,2013-03-19 01:55:00,
2013-03-18 20:58:00,51.2,28.3,29.98,North,355,0.0,2.0,41,0.00,,---,0.00,VWS V14.00,2013-03-19 01:58:00,
2013-03-18 21:00:00,51.0,28.1,29.98,North,355,0.0,2.0,41,0.00,,---,0.00,VWS V14.00,2013-03-19 02:00:00,
2013-03-18 21:03:00,50.5,27.7,29.99,North,355,0.0,0.0,41,0.00,,---,0.00,VWS V14.00,2013-03-19 02:03:00,
2013-03-18 21:05:00,50.4,27.6,29.99,North,355,0.0,0.0,41,0.00,,---,0.00,VWS V14.00,2013-03-19 02:05:00,
2013-03-18 21:08:00,50.2,27.4,29.99,North,355,0.0,0.0,41,0.00,,---,0.00,VWS V14.00,2013-03-19 02:08:00,
2013-03-18 21:10:00,50.1,27.3,29.99,North,355,0.0,0.0,41,0.00,,---,0.00,VWS V14.00,2013-03-19 02:10:00,
2013-03-18 21:13:00,49.9,27.7,29.99,North,355,0.0,0.0,42,0.00,,---,0.00,VWS V14.00,2013-03-19 02:13:00,
2013-03-18 21:15:00,49.9,27.7,30.00,North,355,0.0,0.0,42,0.00,,---,0.00,VWS V14.00,2013-03-19 02:15:00,
2013-03-18 21:18:00,49.5,29.1,30.00,North,355,0.0,0.0,45,0.00,,---,0.00,VWS V14.00,2013-03-19 02:18:00,
2013-03-18 21:20:00,49.4,29.0,30.00,North,355,0.0,0.0,45,0.00,,---,0.00,VWS V14.00,2013-03-19 02:20:00,
2013-03-18 21:23:00,49.1,28.7,30.00,North,355,0.0,0.0,45,0.00,,---,0.00,VWS V14.00,2013-03-19 02:23:00,
2013-03-18 21:25:00,49.0,28.0,30.00,North,355,0.0,0.0,44,0.00,,---,0.00,VWS V14.00,2013-03-19 02:25:00,
2013-03-18 21:28:00,48.7,28.3,30.00,North,355,0.0,0.0,45,0.00,,---,0.00,VWS V14.00,2013-03-19 02:28:00,
2013-03-18 21:30:00,48.7,28.3,30.00,North,355,0.0,0.0,45,0.00,,---,0.00,VWS V14.00,2013-03-19 02:30:00,
2013-03-18 21:33:00,48.3,28.0,30.00,North,355,0.0,0.0,45,0.00,,---,0.00,VWS V14.00,2013-03-19 02:33:00,
2013-03-18 21:35:00,48.2,27.3,30.00,North,355,0.0,0.0,44,0.00,,---,0.00,VWS V14.00,2013-03-19 02:35:00,
2013-03-18 21:38:00,48.0,27.1,30.00,North,355,0.0,0.0,44,0.00,,---,0.00,VWS V14.00,2013-03-19 02:38:00,
2013-03-18 21:40:00,48.0,26.6,30.00,North,355,0.0,0.0,43,0.00,,---,0.00,VWS V14.00,2013-03-19 02:40:00,
2013-03-18 21:43:00,47.9,26.5,30.00,North,355,0.0,0.0,43,0.00,,---,0.00,VWS V14.00,2013-03-19 02:43:00,
2013-03-18 21:45:00,47.9,26.5,30.00,North,355,0.0,0.0,43,0.00,,---,0.00,VWS V14.00,2013-03-19 02:45:00,
2013-03-18 21:48:00,47.9,26.5,30.00,North,355,0.0,0.0,43,0.00,,---,0.00,VWS V14.00,2013-03-19 02:48:00,
2013-03-18 21:50:00,47.9,26.5,30.00,North,355,0.0,0.0,43,0.00,,---,0.00,VWS V14.00,2013-03-19 02:50:00,
2013-03-18 21:53:00,47.8,26.4,30.00,North,355,0.0,0.0,43,0.00,,---,0.00,VWS V14.00,2013-03-19 02:53:00,
2013-03-18 21:55:00,47.8,26.4,30.00,North,355,0.0,0.0,43,0.00,,---,0.00,VWS V14.00,2013-03-19 02:55:00,
2013-03-18 21:58:00,47.9,27.6,30.00,North,355,0.0,0.0,45,0.00,,---,0.00,VWS V14.00,2013-03-19 02:58:00,
2013-03-18 22:00:00,47.9,28.1,30.00,North,355,0.0,0.0,46,0.00,,---,0.00,VWS V14.00,2013-03-19 03:00:00,
2013-03-18 22:03:00,47.5,27.2,30.00,North,355,0.0,0.0,45,0.00,,---,0.00,VWS V14.00,2013-03-19 03:03:00,
2013-03-18 22:05:00,47.4,27.1,30.00,North,355,0.0,0.0,45,0.00,,---,0.00,VWS V14.00,2013-03-19 03:05:00,
2013-03-18 22:08:00,47.1,26.9,30.01,North,355,0.0,0.0,45,0.00,,---,0.00,VWS V14.00,2013-03-19 03:08:00,
2013-03-18 22:10:00,47.0,26.8,30.01,North,355,0.0,0.0,45,0.00,,---,0.00,VWS V14.00,2013-03-19 03:10:00,
2013-03-18 22:13:00,46.9,26.1,30.01,North,355,0.0,0.0,44,0.00,,---,0.00,VWS V14.00,2013-03-19 03:13:00,
2013-03-18 22:15:00,47.0,26.2,30.01,North,355,0.0,0.0,44,0.00,,---,0.00,VWS V14.00,2013-03-19 03:15:00,
2013-03-18 22:18:00,47.2,25.9,30.01,North,355,0.0,0.0,43,0.00,,---,0.00,VWS V14.00,2013-03-19 03:18:00,
2013-03-18 22:20:00,47.3,26.0,30.01,North,355,0.0,0.0,43,0.00,,---,0.00,VWS V14.00,2013-03-19 03:20:00,
2013-03-18 22:23:00,47.4,26.6,30.01,North,355,0.0,0.0,44,0.00,,---,0.00,VWS V14.00,2013-03-19 03:23:00,
2013-03-18 22:25:00,47.4,26.6,30.01,North,355,0.0,0.0,44,0.00,,---,0.00,VWS V14.00,2013-03-19 03:25:00,
2013-03-18 22:28:00,47.4,26.6,30.01,North,355,0.0,0.0,44,0.00,,---,0.00,VWS V14.00,2013-03-19 03:28:00,
2013-03-18 22:30:00,47.4,26.0,30.01,North,355,0.0,0.0,43,0.00,,---,0.00,VWS V14.00,2013-03-19 03:30:00,
2013-03-18 22:33:00,47.4,26.0,30.01,North,355,0.0,0.0,43,0.00,,---,0.00,VWS V14.00,2013-03-19 03:33:00,
2013-03-18 22:35:00,47.4,26.6,30.01,North,355,0.0,0.0,44,0.00,,---,0.00,VWS V14.00,2013-03-19 03:35:00,
2013-03-18 22:38:00,47.2,25.9,30.01,North,355,0.0,0.0,43,0.00,,---,0.00,VWS V14.00,2013-03-19 03:38:00,
2013-03-18 22:40:00,47.2,25.9,30.01,North,355,0.0,0.0,43,0.00,,---,0.00,VWS V14.00,2013-03-19 03:40:00,
2013-03-18 22:43:00,47.0,26.8,30.02,North,355,0.0,0.0,45,0.00,,---,0.00,VWS V14.00,2013-03-19 03:43:00,
2013-03-18 22:45:00,47.0,27.3,30.02,North,355,0.0,0.0,46,0.00,,---,0.00,VWS V14.00,2013-03-19 03:45:00,
2013-03-18 22:48:00,46.6,26.9,30.02,North,355,0.0,0.0,46,0.00,,---,0.00,VWS V14.00,2013-03-19 03:48:00,
2013-03-18 22:50:00,46.4,26.8,30.02,North,355,0.0,0.0,46,0.00,,---,0.00,VWS V14.00,2013-03-19 03:50:00,
2013-03-18 22:53:00,46.0,26.9,30.02,North,355,0.0,0.0,47,0.00,,---,0.00,VWS V14.00,2013-03-19 03:53:00,
2013-03-18 22:55:00,45.9,26.8,30.02,North,355,0.0,0.0,47,0.00,,---,0.00,VWS V14.00,2013-03-19 03:55:00,
2013-03-18 22:58:00,45.6,26.5,30.02,North,355,0.0,0.0,47,0.00,,---,0.00,VWS V14.00,2013-03-19 03:58:00,
2013-03-18 23:00:00,45.5,27.0,30.02,North,355,0.0,0.0,48,0.00,,---,0.00,VWS V14.00,2013-03-19 04:00:00,
2013-03-18 23:05:00,45.0,26.0,30.03,North,355,0.0,0.0,47,0.00,,---,0.00,VWS V14.00,2013-03-19 04:05:00,
2013-03-18 23:10:00,44.6,25.6,30.03,North,355,0.0,0.0,47,0.00,,---,0.00,VWS V14.00,2013-03-19 04:10:00,
2013-03-18 23:15:00,44.4,25.5,30.03,North,355,0.0,0.0,47,0.00,,---,0.00,VWS V14.00,2013-03-19 04:15:00,
2013-03-18 23:20:00,44.3,26.9,30.03,North,355,0.0,0.0,50,0.00,,---,0.00,VWS V14.00,2013-03-19 04:20:00,
2013-03-18 23:25:00,44.1,26.2,30.03,North,355,0.0,0.0,49,0.00,,---,0.00,VWS V14.00,2013-03-19 04:25:00,
2013-03-18 23:30:00,43.8,25.4,30.03,North,355,0.0,0.0,48,0.00,,---,0.00,VWS V14.00,2013-03-19 04:30:00,
2013-03-18 23:35:00,43.6,25.7,30.03,North,355,0.0,0.0,49,0.00,,---,0.00,VWS V14.00,2013-03-19 04:35:00,
2013-03-18 23:40:00,43.4,26.0,30.03,North,355,0.0,0.0,50,0.00,,---,0.00,VWS V14.00,2013-03-19 04:40:00,
2013-03-18 23:45:00,43.2,25.8,30.03,North,355,0.0,0.0,50,0.00,,---,0.00,VWS V14.00,2013-03-19 04:45:00,
2013-03-18 23:50:00,43.0,25.2,30.02,North,355,0.0,0.0,49,0.00,,---,0.00,VWS V14.00,2013-03-19 04:50:00,
2013-03-18 23:55:00,42.9,25.6,30.02,North,355,0.0,0.0,50,0.00,,---,0.00,VWS V14.00,2013-03-19 04:55:00,